METAR Data
IDs: Format: Raw Decoded Include TAF

Data at: 0526 UTC 26 Sep 2018

KIZA 260515Z AUTO 22003KT 7SM CLR 12/10 A2996 RMK AO2
KIZA 260455Z AUTO 22004KT 10SM CLR 12/10 A2995 RMK AO2
KIZA 260435Z AUTO 22004KT 10SM CLR 13/10 A2996 RMK AO2
KIZA 260415Z AUTO 22004KT 10SM CLR 13/10 A2995 RMK AO2
KIZA 260355Z AUTO 23005KT 10SM CLR 14/11 A2995 RMK AO2
KIZA 260335Z AUTO 23006KT 10SM CLR 14/11 A2995 RMK AO2
KIZA 260315Z AUTO 23005KT 10SM CLR 15/11 A2994 RMK AO2
KIZA 260255Z AUTO 24005KT 10SM CLR 16/11 A2993 RMK AO2
KIZA 260235Z AUTO 24007KT 10SM CLR 16/11 A2993 RMK AO2
KIZA 260215Z AUTO 25007KT 10SM CLR 17/11 A2992 RMK AO2
KIZA 260155Z AUTO 25007KT 10SM CLR 18/11 A2991 RMK AO2
KIZA 260135Z AUTO 25008KT 10SM CLR 20/11 A2991 RMK AO2
KIZA 260115Z AUTO 24008KT 10SM CLR 22/11 A2990 RMK AO2
KIZA 260055Z AUTO 27007KT 10SM CLR 23/12 A2990 RMK AO2
KIZA 260035Z AUTO 27008KT 10SM CLR 25/12 A2990 RMK AO2
KIZA 260015Z AUTO 25007KT 10SM CLR 26/12 A2990 RMK AO2
KIZA 252355Z AUTO 27008KT 10SM CLR 25/12 A2990 RMK AO2
KIZA 252335Z AUTO 26007KT 10SM CLR 26/12 A2990 RMK AO2
KIZA 252315Z AUTO 28009KT 10SM CLR 26/12 A2990 RMK AO2
KIZA 252255Z AUTO 25010KT 10SM CLR 26/12 A2991 RMK AO2
KIZA 252235Z AUTO 26010KT 10SM CLR 26/12 A2991 RMK AO2
KIZA 252215Z AUTO 27009KT 10SM CLR 26/12 A2991 RMK AO2
KIZA 252155Z AUTO 25007KT 10SM CLR 26/12 A2991 RMK AO2
KIZA 252135Z AUTO 22006KT 10SM CLR 25/12 A2991 RMK AO2
KIZA 252115Z AUTO 28006KT 10SM CLR 25/12 A2992 RMK AO2
KIZA 252055Z AUTO 25005KT 10SM CLR 25/12 A2992 RMK AO2
KIZA 252035Z AUTO 23005KT 10SM CLR 24/12 A2993 RMK AO2
KIZA 252015Z AUTO 25006KT 10SM CLR 23/12 A2994 RMK AO2
KIZA 251955Z AUTO 29005KT 10SM CLR 22/12 A2995 RMK AO2
KIZA 251935Z AUTO 25005KT 10SM CLR 22/12 A2995 RMK AO2
KIZA 251915Z AUTO 27003KT 10SM CLR 21/11 A2995 RMK AO2
KIZA 251855Z AUTO 27006KT 10SM CLR 20/11 A2996 RMK AO2
KIZA 251835Z AUTO 26005KT 10SM CLR 18/11 A2996 RMK AO2
KIZA 251815Z AUTO 28004KT 10SM CLR 17/11 A2997 RMK AO2
KIZA 251755Z AUTO 26006KT 10SM CLR 16/11 A2997 RMK AO2
KIZA 251735Z AUTO 27005KT 10SM CLR 15/11 A2997 RMK AO2
KIZA 251715Z AUTO 27006KT 10SM CLR 13/10 A2997 RMK AO2
KIZA 251655Z AUTO 25005KT 10SM CLR 12/10 A2997 RMK AO2
KIZA 251635Z AUTO 23003KT 7SM SCT003 11/10 A2996 RMK AO2
KIZA 251615Z AUTO 00000KT 5SM BR BKN001 10/10 A2996 RMK AO2
KIZA 251555Z AUTO 00000KT 2SM BR OVC001 10/10 A2995 RMK AO2 VIS 1 1/2V4
KIZA 251535Z AUTO 00000KT 1 1/4SM BR OVC001 09/09 A2995 RMK AO2
KIZA 251515Z AUTO 04003KT 1SM BR OVC001 09/09 A2995 RMK AO2
KIZA 251455Z AUTO 06004KT 3/4SM BR OVC001 09/09 A2995 RMK AO2
KIZA 251435Z AUTO 03003KT 1/2SM FG OVC001 09/09 A2995 RMK AO2
KIZA 251415Z AUTO 04003KT 3/4SM BR OVC001 09/09 A2995 RMK AO2
KIZA 251355Z AUTO 04004KT 1SM BR OVC001 09/09 A2994 RMK AO2
KIZA 251335Z AUTO 04004KT 1SM BR OVC001 10/09 A2994 RMK AO2
KIZA 251315Z AUTO 04004KT 1 1/2SM BR OVC001 10/10 A2993 RMK AO2
KIZA 251255Z AUTO 00000KT 1 1/2SM BR OVC001 10/10 A2992 RMK AO2
KIZA 251235Z AUTO 00000KT 2 1/2SM BR OVC001 10/10 A2992 RMK AO2
KIZA 251215Z AUTO 00000KT 1 1/2SM BR OVC001 10/10 A2992 RMK AO2
KIZA 251155Z AUTO 00000KT 1 3/4SM BR OVC001 10/10 A2991 RMK AO2
KIZA 251135Z AUTO 00000KT 1 3/4SM BR OVC003 10/10 A2990 RMK AO2
KIZA 251115Z AUTO 00000KT 2 1/2SM BR OVC003 10/10 A2990 RMK AO2 VIS 1 1/4V4
KIZA 251055Z AUTO 00000KT 2SM BR OVC003 10/10 A2990 RMK AO2 VIS 1 3/4V3
KIZA 251035Z AUTO 00000KT 2SM BR OVC003 10/10 A2990 RMK AO2
KIZA 251015Z AUTO 00000KT 3SM BR BKN003 10/10 A2991 RMK AO2
KIZA 250955Z AUTO 00000KT 2SM BR OVC003 10/10 A2991 RMK AO2
KIZA 250935Z AUTO 00000KT 3SM BR BKN003 10/10 A2992 RMK AO2
KIZA 250915Z AUTO 00000KT 3SM BR OVC003 11/10 A2992 RMK AO2
KIZA 250855Z AUTO 00000KT 3SM BR BKN003 11/10 A2991 RMK AO2
KIZA 250835Z AUTO 00000KT 5SM BR BKN003 11/10 A2991 RMK AO2
KIZA 250815Z AUTO 00000KT 5SM BR SCT003 11/10 A2991 RMK AO2
KIZA 250755Z AUTO 00000KT 4SM BR SCT003 11/10 A2991 RMK AO2
KIZA 250735Z AUTO 24003KT 4SM BR SCT003 11/10 A2991 RMK AO2
KIZA 250715Z AUTO 00000KT 4SM BR BKN003 11/10 A2992 RMK AO2
KIZA 250655Z AUTO 00000KT 5SM BR SCT003 11/10 A2992 RMK AO2
KIZA 250635Z AUTO 00000KT 7SM CLR 10/09 A2992 RMK AO2
KIZA 250615Z AUTO 00000KT 7SM CLR 11/10 A2992 RMK AO2
KIZA 250555Z AUTO 00000KT 7SM CLR 11/10 A2992 RMK AO2
KIZA 250535Z AUTO 00000KT 7SM CLR 11/10 A2992 RMK AO2
KIZA 250515Z AUTO 00000KT 7SM CLR 11/10 A2991 RMK AO2
KIZA 250455Z AUTO 22003KT 7SM CLR 11/10 A2992 RMK AO2
KIZA 250435Z AUTO 22003KT 7SM CLR 12/10 A2991 RMK AO2
KIZA 250415Z AUTO 21003KT 7SM CLR 12/10 A2991 RMK AO2
KIZA 250355Z AUTO 24003KT 7SM CLR 13/10 A2990 RMK AO2
KIZA 250335Z AUTO 24003KT 7SM CLR 13/10 A2989 RMK AO2
KIZA 250315Z AUTO 23004KT 10SM CLR 14/10 A2989 RMK AO2
KIZA 250255Z AUTO 24005KT 10SM CLR 15/10 A2988 RMK AO2
KIZA 250235Z AUTO 24006KT 10SM CLR 16/10 A2988 RMK AO2
KIZA 250215Z AUTO 24005KT 10SM CLR 17/10 A2987 RMK AO2
KIZA 250155Z AUTO 25006KT 10SM CLR 17/10 A2987 RMK AO2
KIZA 250135Z AUTO 26005KT 10SM CLR 19/10 A2987 RMK AO2
KIZA 250115Z AUTO 27007KT 10SM CLR 20/10 A2986 RMK AO2
KIZA 250055Z AUTO 28007KT 10SM CLR 21/10 A2986 RMK AO2
KIZA 250035Z AUTO 27009KT 10SM CLR 21/11 A2986 RMK AO2
KIZA 250015Z AUTO 27010KT 10SM CLR 22/11 A2986 RMK AO2
KIZA 242355Z AUTO 27009KT 10SM CLR 23/11 A2985 RMK AO2
KIZA 242335Z AUTO 27011KT 10SM CLR 24/11 A2985 RMK AO2
KIZA 242315Z AUTO 28013KT 10SM CLR 24/11 A2985 RMK AO2
KIZA 242255Z AUTO 27012G18KT 10SM CLR 25/12 A2985 RMK AO2
KIZA 242235Z AUTO 27011KT 10SM CLR 26/12 A2985 RMK AO2
KIZA 242215Z AUTO 25013KT 10SM CLR 26/12 A2985 RMK AO2
KIZA 242155Z AUTO 26010KT 10SM CLR 27/12 A2985 RMK AO2
KIZA 242135Z AUTO 24006KT 10SM CLR 26/12 A2985 RMK AO2
KIZA 242115Z AUTO 26007KT 10SM CLR 26/12 A2986 RMK AO2
KIZA 242055Z AUTO 25008KT 10SM CLR 26/12 A2987 RMK AO2
KIZA 242035Z AUTO 26009KT 10SM CLR 26/12 A2987 RMK AO2
KIZA 242015Z AUTO 25007KT 10SM CLR 25/12 A2988 RMK AO2
KIZA 241955Z AUTO 00000KT 10SM CLR 24/11 A2988 RMK AO2
KIZA 241935Z AUTO 24006KT 10SM CLR 24/12 A2989 RMK AO2
KIZA 241915Z AUTO 25004KT 10SM CLR 23/12 A2990 RMK AO2
KIZA 241855Z AUTO 22003KT 10SM CLR 21/11 A2990 RMK AO2
KIZA 241835Z AUTO 30004KT 10SM CLR 20/12 A2991 RMK AO2
KIZA 241815Z AUTO 24005KT 10SM CLR 18/12 A2992 RMK AO2
KIZA 241755Z AUTO 23003KT 10SM CLR 16/13 A2992 RMK AO2
KIZA 241735Z AUTO 00000KT 10SM CLR 15/13 A2992 RMK AO2